aviador You're here:

KGEV Decoded Metar

JEFFERSON in NC, USA
Report Time2018-04-27 02:40:00
UTC Time2018-04-27 03:05:25
Flight Rules lifr LIFR
WindCalm
Visibility3219 m
Phenomena:Rain
Clouds:Overcast 001 Hf
Ceiling100 ft
Temp09°C (ISA 0)
Dew Point09°C (100% RH)
AAT8.8°C
QNH1011 hPa
Density Alt3,451 ft
Elevation3,179 ft
Report Wrong Elevation
Raw Report
METAR KGEV 270240Z AUTO 00000KT 2SM RA OVC001 09/09 A2985 RMK AO2 T00900090=

Extra information for KGEV:More info

Metar Taf Metar & Taf Last 4 Metars F.Rules Stats Wind Profile Meteogram Temp Stats Airport Information Weather charts Add Link Nearby VenuesMetar ALERT Operation Metar Decoded Social comments

AIRNAV info for KGEV